Impacts METAR Board
IDs:

KPHL - Philadelphia Intl, PA, US

Updated at: 2300 UTC 18 Dec 2018
Potential Impact None Slight Moderate High
Time 18/11Z 18/12Z 18/13Z 18/14Z 18/15Z 18/16Z 18/17Z 18/18Z 18/19Z 18/20Z 18/21Z 18/22Z 18/23Z
Temp38 36 36 37 38 39 40 42 42 42 41 38 37
Dewpt19 20 19 19 18 17 16 16 16 15 14 14 13
Altim29.99 30.01 30.04 30.07 30.09 30.09 30.09 30.09 30.09 30.10 30.12 30.15 30.16
VIS10 10 10 10 10 10 10 10 10 10 10 10 10
CIG50 -- -- -- -- -- -- -- -- -- -- -- --
CoverBKNFEWFEWFEWFEWFEWFEWFEWCLRCLRCLRFEWCLR
FltCatVFRVFRVFRVFRVFRVFRVFRVFRVFRVFRVFRVFRVFR
WX--------------------------
WDir330330330330300320320330320340320340360
WSpd11 10 13 18 14 15 16 14 13 11 13 10 3
WGst19 -- -- 23 20 25 -- 22 -- -- 18 -- --
Raw hourly METARs
KPHL 181054Z 33011G19KT 10SM BKN050 03/M07 A2999 RMK AO2 SLP156 T00331072 $
KPHL 181154Z 33010KT 10SM FEW050 02/M07 A3001 RMK AO2 SLP162 T00221067 10044 20017 51021 $
KPHL 181254Z 33013KT 10SM FEW050 02/M07 A3004 RMK AO2 SLP171 T00221072 $
KPHL 181354Z 33018G23KT 10SM FEW040 03/M07 A3007 RMK AO2 PK WND 30029/1340 SLP182 T00281072
KPHL 181454Z 30014G20KT 10SM FEW044 03/M08 A3009 RMK AO2 PK WND 32027/1413 SLP189 T00331078 51027
KPHL 181554Z 32015G25KT 10SM FEW050 04/M08 A3009 RMK AO2 SLP190 T00391083
KPHL 181654Z 32016KT 10SM FEW050 04/M09 A3009 RMK AO2 SLP188 T00441089 VISNO W
KPHL 181754Z 33014G22KT 10SM FEW055 06/M09 A3009 RMK AO2 SLP188 T00561089 10056 20017 58002
KPHL 181854Z 32013KT 10SM CLR 06/M09 A3009 RMK AO2 SLP189 T00561089
KPHL 181954Z 34011KT 10SM CLR 06/M09 A3010 RMK AO2 SLP192 T00561094
KPHL 182054Z 32013G18KT 10SM CLR 05/M10 A3012 RMK AO2 SLP200 T00501100
KPHL 182154Z 34010KT 10SM FEW250 03/M10 A3015 RMK AO2 SLP208 T00331100
KPHL 182254Z 36003KT 10SM CLR 03/M11 A3016 RMK AO2 SLP212 T00281106



Page loaded:  23:28 UTC  |   03:28 PM Pacific  |   04:28 PM Mountain  |   05:28 PM Central  |   06:28 PM Eastern

 

ADVISORIES

FORECASTS

FORECASTS

OBSERVATIONS

USER TOOLS

ABOUT US